Time;durP1;ratioP1;P1;durP2;ratioP2;P2;SDS_P1;SDS_P2;PMS_P1;PMS_P2;Temp;Humidity;BMP_temperature;BMP_pressure;BME280_temperature;BME280_humidity;BME280_pressure;Samples;Min_cycle;Max_cycle;Signal;HPM_P1;HPM_P2
2022/08/21 00:01:11;;;;;;;6.63;2.13;;;19.20;76.80;;;;;;5007354;28;20120;-72
2022/08/21 00:03:39;;;;;;;7.53;1.98;;;19.20;76.40;;;;;;5010922;28;20049;-75
2022/08/21 00:06:05;;;;;;;5.63;1.85;;;19.10;76.70;;;;;;5012498;28;20053;-73
2022/08/21 00:08:30;;;;;;;6.38;1.98;;;19.00;77.00;;;;;;5018888;28;20045;-73
2022/08/21 00:10:56;;;;;;;4.43;1.75;;;19.00;77.70;;;;;;4982385;28;20119;-74
2022/08/21 00:13:22;;;;;;;10.52;2.33;;;19.00;78.10;;;;;;4996591;28;20068;-72
2022/08/21 00:15:48;;;;;;;7.32;1.73;;;19.00;78.40;;;;;;4992513;28;20046;-70
2022/08/21 00:18:14;;;;;;;6.47;2.05;;;19.00;78.10;;;;;;5007739;28;20527;-70
2022/08/21 00:20:40;;;;;;;6.60;2.55;;;19.00;78.10;;;;;;5041084;28;20148;-71
2022/08/21 00:23:06;;;;;;;4.07;1.60;;;18.90;78.50;;;;;;5014483;28;20045;-71
2022/08/21 00:25:32;;;;;;;7.85;2.00;;;19.00;78.50;;;;;;5012662;28;20174;-70
2022/08/21 00:27:58;;;;;;;8.27;2.20;;;19.00;78.10;;;;;;5027184;28;20041;-70
2022/08/21 00:30:24;;;;;;;6.55;1.58;;;19.00;78.00;;;;;;5020736;28;20086;-71
2022/08/21 00:32:51;;;;;;;4.53;1.63;;;19.00;78.60;;;;;;5009253;28;20061;-70
2022/08/21 00:35:18;;;;;;;9.30;2.42;;;18.90;78.60;;;;;;5020280;28;20108;-68
2022/08/21 00:37:44;;;;;;;9.38;2.72;;;19.00;78.40;;;;;;5038159;28;20053;-68
2022/08/21 00:40:12;;;;;;;7.35;2.78;;;18.90;78.70;;;;;;4985759;28;20049;-68
2022/08/21 00:42:38;;;;;;;8.00;2.22;;;18.90;79.10;;;;;;5018696;28;20041;-68
2022/08/21 00:45:04;;;;;;;6.40;2.53;;;18.90;79.00;;;;;;5002064;28;20107;-68
2022/08/21 00:47:30;;;;;;;9.75;2.50;;;18.80;79.70;;;;;;4991252;28;20588;-67
2022/08/21 00:49:56;;;;;;;12.77;2.80;;;18.80;79.90;;;;;;5029182;28;20046;-67
2022/08/21 00:52:25;;;;;;;9.95;2.95;;;18.80;80.40;;;;;;5006015;28;20038;-69
2022/08/21 00:54:51;;;;;;;7.30;2.53;;;18.80;80.30;;;;;;5009085;28;20073;-70
2022/08/21 00:57:23;;;;;;;8.23;2.33;;;18.70;81.50;;;;;;5010893;28;20084;-68
2022/08/21 00:59:50;;;;;;;5.97;2.25;;;18.80;81.70;;;;;;5008960;28;20494;-68
2022/08/21 01:02:16;;;;;;;8.00;2.40;;;18.70;82.20;;;;;;5005723;28;20522;-67
2022/08/21 01:04:42;;;;;;;6.57;2.72;;;18.70;82.20;;;;;;5004062;28;20045;-68
2022/08/21 01:07:08;;;;;;;7.20;2.42;;;18.70;82.60;;;;;;4987618;28;20099;-67
2022/08/21 01:09:34;;;;;;;12.00;2.85;;;18.60;83.00;;;;;;4998364;28;20048;-67
2022/08/21 01:12:00;;;;;;;7.40;2.13;;;18.60;82.80;;;;;;5024073;28;20042;-67
2022/08/21 01:14:25;;;;;;;7.53;2.30;;;18.50;83.10;;;;;;4996818;28;20129;-68
2022/08/21 01:16:52;;;;;;;8.60;2.92;;;18.50;83.20;;;;;;5023698;28;20131;-68
2022/08/21 01:19:18;;;;;;;8.60;3.25;;;18.40;83.40;;;;;;5014793;28;20054;-68
2022/08/21 01:21:44;;;;;;;8.38;2.70;;;18.40;83.30;;;;;;4999196;28;20498;-69
2022/08/21 01:24:10;;;;;;;7.93;2.80;;;18.40;83.30;;;;;;5023436;28;20100;-69
2022/08/21 01:26:36;;;;;;;12.05;3.03;;;18.30;83.30;;;;;;4996686;28;20376;-69
2022/08/21 01:29:26;;;;;;;7.50;2.30;;;18.30;83.40;;;;;;4995901;28;20072;-68
2022/08/21 01:31:51;;;;;;;4.82;2.10;;;18.30;83.30;;;;;;5018886;28;20037;-67
2022/08/21 01:34:17;;;;;;;8.88;2.60;;;18.30;83.30;;;;;;5020689;28;20107;-67
2022/08/21 01:36:44;;;;;;;5.00;2.30;;;18.20;83.30;;;;;;5013211;28;20081;-68
2022/08/21 01:39:10;;;;;;;7.70;2.28;;;18.20;83.30;;;;;;5013491;28;20088;-68
2022/08/21 01:41:35;;;;;;;7.45;2.25;;;18.20;83.50;;;;;;5019716;28;20132;-68
2022/08/21 01:44:01;;;;;;;4.95;2.20;;;18.10;83.00;;;;;;5036987;28;20081;-68
2022/08/21 01:46:27;;;;;;;7.20;2.70;;;18.10;82.70;;;;;;5018676;28;20041;-68
2022/08/21 01:48:53;;;;;;;7.70;2.60;;;18.00;83.20;;;;;;4986928;28;20488;-70
2022/08/21 01:51:19;;;;;;;8.65;1.92;;;18.00;83.50;;;;;;5012480;28;20073;-67
2022/08/21 01:53:44;;;;;;;5.68;2.30;;;17.90;84.30;;;;;;5013007;28;20046;-69
2022/08/21 01:56:11;;;;;;;9.57;2.67;;;17.90;85.00;;;;;;5002802;28;20060;-67
2022/08/21 01:58:37;;;;;;;5.47;2.33;;;17.80;85.40;;;;;;5009098;28;20052;-67
2022/08/21 02:01:03;;;;;;;7.07;2.08;;;17.80;86.30;;;;;;5018153;28;20049;-67
2022/08/21 02:03:29;;;;;;;6.55;2.05;;;17.80;85.80;;;;;;5003069;28;20113;-68
2022/08/21 02:05:55;;;;;;;6.70;2.22;;;17.70;86.60;;;;;;5022212;28;20050;-68
2022/08/21 02:08:23;;;;;;;6.43;2.15;;;17.70;85.40;;;;;;5014911;28;20558;-72
2022/08/21 02:10:49;;;;;;;4.35;1.50;;;17.60;85.50;;;;;;5015352;28;20045;-68
2022/08/21 02:13:17;;;;;;;9.20;2.40;;;17.60;85.40;;;;;;5035668;28;20052;-69
2022/08/21 02:15:44;;;;;;;6.60;1.90;;;17.70;85.00;;;;;;4995940;28;20046;-68
2022/08/21 02:18:12;;;;;;;3.80;1.90;;;17.60;84.60;;;;;;5007855;28;20053;-67
2022/08/21 02:20:42;;;;;;;5.63;1.60;;;17.60;84.70;;;;;;5014049;28;20041;-68
2022/08/21 02:23:10;;;;;;;5.15;2.15;;;17.60;85.20;;;;;;5013987;28;20057;-70
2022/08/21 02:25:37;;;;;;;7.95;2.50;;;17.50;85.20;;;;;;5037896;28;20053;-68
2022/08/21 02:28:04;;;;;;;8.00;2.00;;;17.50;85.70;;;;;;5008926;28;20464;-67
2022/08/21 02:30:41;;;;;;;5.03;2.20;;;17.30;86.50;;;;;;5014916;28;20153;-69
2022/08/21 02:33:10;;;;;;;6.50;1.92;;;17.30;86.40;;;;;;5012200;28;20054;-67
2022/08/21 02:35:38;;;;;;;4.65;1.90;;;17.30;86.00;;;;;;5010321;28;20434;-68
2022/08/21 02:38:07;;;;;;;6.40;1.90;;;17.40;85.80;;;;;;4995976;28;20144;-69
2022/08/21 02:40:35;;;;;;;12.07;2.45;;;17.40;85.80;;;;;;5016731;28;20508;-67
2022/08/21 02:43:03;;;;;;;3.47;1.83;;;17.30;86.00;;;;;;5011139;28;20049;-67
2022/08/21 02:45:31;;;;;;;5.40;2.15;;;17.30;86.30;;;;;;5018601;28;20654;-68
2022/08/21 02:48:02;;;;;;;8.63;2.45;;;17.20;86.60;;;;;;5012487;28;20427;-68
2022/08/21 02:50:51;;;;;;;6.07;1.95;;;17.10;87.00;;;;;;5047628;28;20063;-69
2022/08/21 02:53:27;;;;;;;5.40;1.95;;;17.10;87.10;;;;;;5015256;28;20510;-67
2022/08/21 02:55:53;;;;;;;4.35;1.70;;;17.10;87.00;;;;;;5024851;28;20091;-67
2022/08/21 02:58:22;;;;;;;7.15;2.08;;;17.00;87.10;;;;;;5018407;28;20191;-68
2022/08/21 03:00:51;;;;;;;6.55;1.77;;;17.10;86.40;;;;;;5015235;28;20740;-67
2022/08/21 03:03:18;;;;;;;;;;;17.10;86.40;;;;;;5020067;28;20159;-68
2022/08/21 03:05:45;;;;;;;6.50;2.05;;;17.10;86.40;;;;;;5037143;28;19960;-67
2022/08/21 03:08:14;;;;;;;7.40;1.88;;;17.10;86.30;;;;;;4980555;28;20068;-68
2022/08/21 03:10:44;;;;;;;4.78;1.83;;;17.10;85.90;;;;;;4983879;28;20056;-67
2022/08/21 03:13:09;;;;;;;6.50;2.00;;;17.10;85.90;;;;;;4999471;28;20551;-68
2022/08/21 03:15:37;;;;;;;4.15;2.30;;;17.00;86.30;;;;;;5019398;28;20087;-68
2022/08/21 03:18:04;;;;;;;5.28;2.10;;;17.00;86.40;;;;;;4984023;28;20053;-67
2022/08/21 03:20:32;;;;;;;6.82;2.90;;;17.00;86.70;;;;;;5006059;28;20045;-68
2022/08/21 03:22:58;;;;;;;5.00;2.33;;;17.00;86.20;;;;;;5018009;28;20107;-68
2022/08/21 03:25:24;;;;;;;9.82;2.65;;;16.90;86.50;;;;;;5000667;28;20073;-68
2022/08/21 03:27:50;;;;;;;6.13;2.40;;;16.80;87.20;;;;;;4996237;28;20645;-68
2022/08/21 03:30:17;;;;;;;9.90;2.47;;;16.80;87.20;;;;;;5003394;28;20105;-68
2022/08/21 03:32:43;;;;;;;4.03;2.13;;;16.80;87.70;;;;;;5009962;28;20571;-69
2022/08/21 03:35:09;;;;;;;6.57;2.60;;;16.70;87.60;;;;;;4982326;28;20049;-70
2022/08/21 03:37:35;;;;;;;7.55;2.10;;;16.70;87.40;;;;;;5019272;28;20426;-70
2022/08/21 03:40:03;;;;;;;4.80;1.80;;;16.70;87.40;;;;;;5032972;28;20037;-67
2022/08/21 03:42:29;;;;;;;5.90;2.03;;;16.70;87.10;;;;;;4990874;28;20049;-68
2022/08/21 03:44:55;;;;;;;5.50;1.77;;;16.70;87.50;;;;;;5016272;28;20486;-68
2022/08/21 03:47:22;;;;;;;6.45;2.38;;;16.60;87.60;;;;;;5016338;28;20115;-69
2022/08/21 03:49:50;;;;;;;4.97;2.08;;;16.60;87.30;;;;;;5011842;28;20046;-68
2022/08/21 03:52:17;;;;;;;7.80;2.42;;;16.70;87.00;;;;;;5009258;28;20057;-68
2022/08/21 03:54:44;;;;;;;6.55;2.03;;;16.60;86.70;;;;;;4997200;28;20052;-68
2022/08/21 03:57:11;;;;;;;9.52;2.65;;;16.50;87.10;;;;;;5008619;28;20046;-68
2022/08/21 03:59:39;;;;;;;6.43;2.60;;;16.50;87.40;;;;;;5008167;28;20445;-70
2022/08/21 04:02:06;;;;;;;4.30;2.00;;;16.40;87.70;;;;;;5016550;28;20045;-68
2022/08/21 04:04:33;;;;;;;4.07;2.08;;;16.50;87.40;;;;;;5025705;28;20064;-68
2022/08/21 04:07:01;;;;;;;5.82;2.17;;;16.50;87.40;;;;;;5005178;28;20369;-67
2022/08/21 04:09:28;;;;;;;4.65;2.10;;;16.40;88.30;;;;;;5014434;28;20068;-70
2022/08/21 04:11:54;;;;;;;4.82;2.00;;;16.40;88.30;;;;;;4988930;28;20618;-68
2022/08/21 04:14:22;;;;;;;6.68;2.13;;;16.40;87.80;;;;;;5007453;28;20056;-68
2022/08/21 04:16:49;;;;;;;4.03;1.92;;;16.40;87.80;;;;;;5039067;28;20049;-69
2022/08/21 04:19:18;;;;;;;7.07;2.55;;;16.40;87.90;;;;;;5013017;28;20054;-68
2022/08/21 04:21:46;;;;;;;6.93;2.63;;;16.40;88.10;;;;;;4995444;28;20083;-70
2022/08/21 04:24:13;;;;;;;5.35;2.10;;;16.30;87.80;;;;;;5012003;28;20049;-70
2022/08/21 04:26:39;;;;;;;7.53;2.03;;;16.30;87.90;;;;;;5014563;28;20053;-68
2022/08/21 04:29:06;;;;;;;6.63;2.42;;;16.20;88.00;;;;;;5038818;28;20041;-70
2022/08/21 04:31:38;;;;;;;6.30;2.50;;;16.20;87.90;;;;;;5013991;28;20125;-69
2022/08/21 04:34:06;;;;;;;5.22;2.05;;;16.10;88.10;;;;;;5009987;28;20584;-68
2022/08/21 04:36:33;;;;;;;7.47;2.42;;;16.10;88.20;;;;;;5017881;28;20053;-68
2022/08/21 04:39:01;;;;;;;6.07;2.22;;;16.10;87.90;;;;;;5010996;28;20050;-68
2022/08/21 04:41:30;;;;;;;7.80;2.45;;;16.00;87.80;;;;;;5010754;28;20049;-71
2022/08/21 04:43:57;;;;;;;;;;;16.00;87.80;;;;;;4986381;28;20107;-73
2022/08/21 04:46:25;;;;;;;6.43;2.17;;;16.00;87.80;;;;;;5020749;28;19999;-73
2022/08/21 04:48:52;;;;;;;6.15;1.80;;;16.00;87.80;;;;;;5012452;28;20042;-70
2022/08/21 04:51:35;;;;;;;4.65;1.92;;;15.90;87.60;;;;;;5016458;28;20537;-68
2022/08/21 04:54:03;;;;;;;5.75;2.25;;;15.90;87.80;;;;;;5022576;28;20056;-69
2022/08/21 04:56:45;;;;;;;4.55;2.33;;;16.00;87.70;;;;;;5004400;28;20052;-68
2022/08/21 04:59:24;;;;;;;5.93;2.30;;;16.00;87.60;;;;;;5029338;28;20057;-68
2022/08/21 05:01:51;;;;;;;7.38;2.40;;;16.00;87.60;;;;;;5012308;28;22034;-68
2022/08/21 05:04:21;;;;;;;4.93;2.22;;;16.00;87.60;;;;;;5043171;28;20131;-68
2022/08/21 05:06:48;;;;;;;6.60;2.10;;;16.00;87.50;;;;;;5025466;28;20119;-68
2022/08/21 05:09:16;;;;;;;9.40;2.30;;;16.00;87.40;;;;;;5001049;28;20081;-69
2022/08/21 05:11:43;;;;;;;8.65;2.30;;;16.00;87.30;;;;;;5007456;28;20100;-70
2022/08/21 05:14:11;;;;;;;6.30;1.98;;;16.00;87.70;;;;;;4999624;28;20057;-69
2022/08/21 05:16:38;;;;;;;4.80;1.80;;;15.90;88.10;;;;;;5003393;28;20136;-69
2022/08/21 05:19:06;;;;;;;8.82;2.55;;;16.00;88.00;;;;;;5009599;28;20054;-70
2022/08/21 05:21:37;;;;;;;7.10;2.33;;;16.10;87.90;;;;;;5010602;28;20463;-69
2022/08/21 05:24:04;;;;;;;6.03;2.03;;;16.10;87.90;;;;;;5023175;28;20111;-68
2022/08/21 05:26:31;;;;;;;4.78;1.88;;;16.10;87.10;;;;;;5007585;28;20054;-69
2022/08/21 05:28:58;;;;;;;7.13;2.25;;;16.10;86.70;;;;;;5017279;28;20046;-68
2022/08/21 05:31:26;;;;;;;6.68;2.47;;;16.10;86.30;;;;;;4985205;28;20045;-69
2022/08/21 05:33:53;;;;;;;7.80;2.05;;;16.10;85.70;;;;;;5027076;28;21044;-69
2022/08/21 05:36:20;;;;;;;5.72;2.22;;;16.20;85.70;;;;;;5004163;28;20103;-69
2022/08/21 05:38:47;;;;;;;6.35;1.80;;;16.20;85.40;;;;;;5015033;28;20046;-69
2022/08/21 05:41:14;;;;;;;7.95;2.05;;;16.20;85.20;;;;;;5013748;28;20049;-68
2022/08/21 05:43:41;;;;;;;3.47;1.65;;;16.20;85.20;;;;;;5013655;28;20077;-68
2022/08/21 05:46:08;;;;;;;4.00;2.17;;;16.20;85.30;;;;;;5022735;28;20056;-68
2022/08/21 05:48:36;;;;;;;6.43;2.20;;;16.20;85.40;;;;;;4980828;28;20041;-68
2022/08/21 05:51:09;;;;;;;4.93;2.00;;;16.20;85.40;;;;;;5023760;28;20045;-71
2022/08/21 05:53:39;;;;;;;7.10;2.00;;;16.20;84.90;;;;;;5029849;28;20053;-68
2022/08/21 05:56:07;;;;;;;4.82;1.90;;;16.30;84.80;;;;;;4998917;28;20046;-67
2022/08/21 05:58:34;;;;;;;6.93;2.08;;;16.40;84.60;;;;;;5040220;28;20166;-68
2022/08/21 06:01:02;;;;;;;5.22;2.33;;;16.50;84.50;;;;;;5042392;28;20049;-68
2022/08/21 06:03:34;;;;;;;4.57;2.00;;;16.50;84.70;;;;;;4987976;28;20080;-68
2022/08/21 06:06:01;;;;;;;7.22;2.08;;;16.60;84.40;;;;;;5024409;28;20107;-68
2022/08/21 06:08:28;;;;;;;7.93;2.00;;;16.70;83.60;;;;;;5048615;28;20041;-68
2022/08/21 06:10:56;;;;;;;4.47;2.17;;;16.80;83.60;;;;;;4986042;28;20045;-69
2022/08/21 06:13:23;;;;;;;6.68;2.58;;;16.90;83.70;;;;;;4997509;28;20052;-68
2022/08/21 06:15:50;;;;;;;5.28;2.10;;;17.00;84.00;;;;;;5017243;28;20730;-68
2022/08/21 06:18:17;;;;;;;6.15;2.17;;;17.00;84.40;;;;;;4998044;28;20075;-69
2022/08/21 06:20:44;;;;;;;6.65;2.50;;;17.10;84.60;;;;;;5011148;28;20041;-69
2022/08/21 06:23:12;;;;;;;5.97;2.28;;;17.20;84.70;;;;;;5020302;28;20132;-69
2022/08/21 06:25:39;;;;;;;5.18;2.15;;;17.30;85.00;;;;;;5045268;28;20049;-68
2022/08/21 06:28:09;;;;;;;5.20;2.25;;;17.30;85.20;;;;;;5040626;28;20491;-67
2022/08/21 06:30:37;;;;;;;6.18;2.22;;;17.30;85.50;;;;;;5006905;28;20208;-68
2022/08/21 06:33:07;;;;;;;6.10;2.40;;;17.40;85.20;;;;;;5027415;28;20048;-68
2022/08/21 06:35:34;;;;;;;4.88;2.50;;;17.40;85.20;;;;;;5023664;28;20382;-68
2022/08/21 06:38:01;;;;;;;4.53;1.92;;;17.50;85.30;;;;;;5037994;28;20133;-68
2022/08/21 06:40:29;;;;;;;4.93;2.10;;;17.50;85.30;;;;;;4999607;28;20048;-68
2022/08/21 06:42:57;;;;;;;5.68;2.30;;;17.60;85.10;;;;;;5018115;28;20041;-69
2022/08/21 06:45:25;;;;;;;5.30;2.13;;;17.70;85.00;;;;;;5012824;28;20052;-68
2022/08/21 06:47:52;;;;;;;6.18;2.50;;;17.80;84.50;;;;;;5021645;28;20651;-69
2022/08/21 06:50:19;;;;;;;8.80;2.30;;;17.80;84.60;;;;;;4999700;28;20127;-68
2022/08/21 06:52:46;;;;;;;4.15;2.08;;;17.90;84.80;;;;;;5023213;28;20045;-68
2022/08/21 06:55:13;;;;;;;6.10;2.30;;;18.00;84.50;;;;;;5002231;28;20497;-70
2022/08/21 06:57:40;;;;;;;4.85;2.05;;;18.10;84.50;;;;;;5016492;28;20075;-69
2022/08/21 07:00:06;;;;;;;5.78;2.35;;;18.20;84.20;;;;;;5029760;28;20055;-70
2022/08/21 07:02:34;;;;;;;4.88;1.92;;;18.20;83.90;;;;;;5001655;28;20046;-68
2022/08/21 07:05:01;;;;;;;8.48;2.45;;;18.30;82.90;;;;;;5038283;28;20119;-68
2022/08/21 07:07:28;;;;;;;5.53;2.10;;;18.30;81.60;;;;;;5019633;28;20045;-68
2022/08/21 07:09:55;;;;;;;8.27;1.90;;;18.40;81.40;;;;;;5003818;28;20052;-68
2022/08/21 07:12:22;;;;;;;4.88;1.45;;;18.40;81.30;;;;;;5014796;28;20050;-67
2022/08/21 07:14:49;;;;;;;5.78;1.90;;;18.50;80.60;;;;;;5014488;28;20506;-67
2022/08/21 07:17:16;;;;;;;3.90;1.60;;;18.50;80.30;;;;;;5031290;28;20612;-68
2022/08/21 07:19:43;;;;;;;4.53;1.80;;;18.50;80.60;;;;;;5008717;28;20053;-68
2022/08/21 07:22:10;;;;;;;4.05;1.65;;;18.60;80.50;;;;;;5022941;28;20045;-67
2022/08/21 07:24:37;;;;;;;5.28;1.80;;;18.70;80.50;;;;;;5023191;28;20099;-69
2022/08/21 07:27:04;;;;;;;7.38;2.40;;;18.80;80.30;;;;;;5028403;28;20049;-69
2022/08/21 07:29:31;;;;;;;5.47;2.38;;;18.90;80.60;;;;;;5040429;28;20111;-68
2022/08/21 07:31:58;;;;;;;4.47;1.73;;;18.90;80.40;;;;;;5011104;28;20041;-69
2022/08/21 07:34:24;;;;;;;4.70;1.77;;;19.00;80.60;;;;;;4995390;28;20076;-69
2022/08/21 07:36:51;;;;;;;4.40;1.90;;;19.10;80.80;;;;;;5011985;28;20506;-69
2022/08/21 07:39:18;;;;;;;8.20;2.35;;;19.10;80.90;;;;;;5008227;28;20156;-69
2022/08/21 07:41:45;;;;;;;8.25;2.25;;;19.20;80.00;;;;;;5046716;28;20045;-69
2022/08/21 07:44:12;;;;;;;4.30;1.70;;;19.20;79.80;;;;;;5009065;28;20054;-68
2022/08/21 07:46:39;;;;;;;6.70;1.90;;;19.30;79.60;;;;;;5017508;28;20057;-68
2022/08/21 07:49:06;;;;;;;5.78;2.20;;;19.30;78.70;;;;;;5015643;28;20046;-68
2022/08/21 07:51:33;;;;;;;5.35;1.48;;;19.30;79.00;;;;;;5008956;28;20143;-70
2022/08/21 07:54:01;;;;;;;5.05;1.70;;;19.30;78.20;;;;;;5022394;28;20054;-68
2022/08/21 07:56:29;;;;;;;6.40;1.95;;;19.30;78.60;;;;;;5041302;28;20045;-68
2022/08/21 07:58:57;;;;;;;;;;;19.30;78.50;;;;;;4996340;28;20372;-68
2022/08/21 08:01:24;;;;;;;5.63;1.98;;;19.40;78.60;;;;;;5042480;28;19920;-69
2022/08/21 08:03:51;;;;;;;8.35;1.83;;;19.50;77.90;;;;;;5013761;28;20049;-68
2022/08/21 08:06:19;;;;;;;5.53;1.90;;;19.50;76.70;;;;;;4993649;28;20049;-68
2022/08/21 08:08:46;;;;;;;4.47;1.85;;;19.50;77.20;;;;;;5009048;28;20287;-69
2022/08/21 08:11:15;;;;;;;5.82;1.70;;;19.60;75.70;;;;;;5013467;28;20041;-71
2022/08/21 08:13:46;;;;;;;6.95;1.95;;;19.70;74.60;;;;;;5011656;28;20534;-69
2022/08/21 08:16:14;;;;;;;5.90;1.80;;;19.80;70.80;;;;;;5007291;28;20494;-69
2022/08/21 08:18:41;;;;;;;5.25;1.48;;;19.80;71.60;;;;;;5042710;28;20052;-69
2022/08/21 08:21:09;;;;;;;3.63;1.52;;;19.90;70.50;;;;;;5009113;28;20144;-69
2022/08/21 08:23:36;;;;;;;4.40;1.70;;;19.90;70.60;;;;;;5023890;28;20077;-69
2022/08/21 08:26:02;;;;;;;4.80;2.28;;;20.00;70.60;;;;;;4981172;28;20468;-69
2022/08/21 08:28:31;;;;;;;4.75;1.40;;;20.00;67.80;;;;;;5001733;28;20421;-69
2022/08/21 08:30:58;;;;;;;;;;;20.10;67.40;;;;;;4996567;28;20475;-69
2022/08/21 08:33:25;;;;;;;3.97;1.77;;;20.10;68.30;;;;;;5044997;28;19913;-69
2022/08/21 08:35:52;;;;;;;7.40;1.75;;;20.20;67.30;;;;;;4981823;28;20046;-68
2022/08/21 08:38:20;;;;;;;6.45;1.45;;;20.20;67.80;;;;;;5043252;28;20042;-69
2022/08/21 08:41:02;;;;;;;5.18;1.90;;;20.20;68.10;;;;;;4996268;28;20407;-69
2022/08/21 08:43:29;;;;;;;5.78;1.70;;;20.30;69.00;;;;;;4996434;28;20041;-70
2022/08/21 08:45:57;;;;;;;6.97;2.05;;;20.40;68.90;;;;;;4986868;28;20048;-69
2022/08/21 08:49:02;;;;;;;6.47;2.30;;;20.50;70.20;;;;;;5024436;28;20041;-69
2022/08/21 08:51:59;;;;;;;6.63;2.25;;;20.60;69.50;;;;;;5020059;28;20044;-70
2022/08/21 08:54:42;;;;;;;6.72;2.65;;;20.70;69.60;;;;;;5022259;28;20046;-70
2022/08/21 08:57:14;;;;;;;8.27;2.55;;;20.70;71.00;;;;;;4998941;28;20065;-70
2022/08/21 08:59:49;;;;;;;5.82;2.30;;;20.80;70.90;;;;;;5019745;28;20045;-69
2022/08/21 09:02:17;;;;;;;8.57;2.55;;;20.90;71.80;;;;;;5014374;28;20050;-69
2022/08/21 09:04:46;;;;;;;6.65;2.33;;;21.10;71.60;;;;;;5019860;28;20092;-69
2022/08/21 09:07:38;;;;;;;8.35;2.53;;;21.20;71.20;;;;;;4982239;28;20049;-70
2022/08/21 09:10:19;;;;;;;6.65;2.50;;;21.30;71.30;;;;;;4998920;28;20046;-69
2022/08/21 09:13:32;;;;;;;7.80;2.72;;;21.40;71.10;;;;;;5026282;28;20054;-69
2022/08/21 09:16:19;;;;;;;8.35;2.45;;;21.60;71.20;;;;;;4970292;28;20080;-69
2022/08/21 09:18:56;;;;;;;9.32;2.88;;;21.70;69.80;;;;;;4973608;28;20082;-69
2022/08/21 09:21:43;;;;;;;9.02;2.78;;;21.80;69.20;;;;;;4972794;28;20081;-70
2022/08/21 09:24:52;;;;;;;7.03;2.55;;;21.90;69.90;;;;;;4964901;28;20054;-69
2022/08/21 09:27:21;;;;;;;7.68;2.53;;;21.90;69.90;;;;;;5039937;28;20053;-68
2022/08/21 09:29:50;;;;;;;8.00;2.75;;;22.00;70.00;;;;;;5022236;28;20047;-72
2022/08/21 09:32:31;;;;;;;7.88;2.90;;;22.00;71.00;;;;;;5008968;28;20045;-69
2022/08/21 09:34:59;;;;;;;7.25;2.67;;;22.10;69.90;;;;;;5034133;28;20077;-70
2022/08/21 09:37:28;;;;;;;10.18;3.33;;;22.10;70.20;;;;;;5005452;28;20061;-69
2022/08/21 09:39:57;;;;;;;7.00;2.72;;;22.10;70.50;;;;;;5019508;28;20111;-69
2022/08/21 09:42:31;;;;;;;11.27;3.50;;;22.20;69.20;;;;;;5020975;28;20041;-69
2022/08/21 09:45:14;;;;;;;7.47;2.80;;;22.30;68.50;;;;;;5010058;28;20060;-69
2022/08/21 09:47:42;;;;;;;7.50;2.45;;;22.40;66.30;;;;;;5037590;28;20046;-69
2022/08/21 09:50:14;;;;;;;7.68;2.70;;;22.30;65.80;;;;;;5029061;28;20087;-69
2022/08/21 09:52:49;;;;;;;8.45;2.58;;;22.10;66.60;;;;;;5009123;28;20479;-69
2022/08/21 09:58:10;;;;;;;13.27;3.75;;;22.30;65.60;;;;;;5047074;28;20479;-69
2022/08/21 10:00:37;;;;;;;9.05;3.20;;;22.30;63.80;;;;;;5013182;28;20045;-70
2022/08/21 10:03:18;;;;;;;8.20;3.30;;;22.40;63.30;;;;;;4998512;28;20778;-69
2022/08/21 10:06:08;;;;;;;10.77;2.60;;;22.50;62.70;;;;;;5021105;28;20108;-69
2022/08/21 10:08:36;;;;;;;7.40;2.70;;;22.70;63.40;;;;;;4994577;28;20045;-69
2022/08/21 10:11:07;;;;;;;;;;;22.90;62.40;;;;;;5042770;28;20060;-71
2022/08/21 10:14:14;;;;;;;10.73;3.05;;;22.70;60.40;;;;;;5016878;28;19913;-70
2022/08/21 10:17:19;;;;;;;11.77;2.85;;;22.60;61.40;;;;;;5014401;28;20054;-69
2022/08/21 10:20:22;;;;;;;7.20;2.67;;;22.80;63.00;;;;;;5013601;28;20061;-71
2022/08/21 10:23:26;;;;;;;8.80;3.25;;;23.00;60.80;;;;;;5024011;28;20091;-70
2022/08/21 10:26:30;;;;;;;10.65;2.92;;;22.80;58.30;;;;;;5020108;28;20068;-69
2022/08/21 10:29:18;;;;;;;8.07;2.58;;;23.00;59.10;;;;;;5018961;28;20783;-71
2022/08/21 10:32:12;;;;;;;10.52;2.92;;;23.10;57.20;;;;;;4999275;28;20145;-69
2022/08/21 10:35:23;;;;;;;9.85;2.58;;;23.20;57.40;;;;;;5023049;28;20057;-69
2022/08/21 10:38:21;;;;;;;9.80;3.03;;;23.40;58.00;;;;;;5028472;28;20523;-69
2022/08/21 10:40:55;;;;;;;10.38;2.45;;;23.30;57.40;;;;;;5017803;28;20045;-70
2022/08/21 10:43:54;;;;;;;8.07;2.78;;;23.20;57.20;;;;;;5014307;28;20073;-68
2022/08/21 10:47:01;;;;;;;10.65;2.50;;;23.00;56.40;;;;;;5014070;28;20056;-69
2022/08/21 10:50:06;;;;;;;11.02;3.00;;;23.10;55.30;;;;;;4987423;28;20671;-68
2022/08/21 10:53:09;;;;;;;8.85;2.35;;;23.00;55.60;;;;;;5006820;28;20041;-65
2022/08/21 10:55:56;;;;;;;10.07;2.58;;;23.00;56.40;;;;;;4989213;28;20165;-65
2022/08/21 10:58:48;;;;;;;10.25;2.78;;;23.10;57.00;;;;;;5006580;28;20049;-66
2022/08/21 11:01:23;;;;;;;9.18;2.63;;;23.40;55.80;;;;;;5007774;28;20046;-67
2022/08/21 11:04:06;;;;;;;10.20;2.50;;;23.60;56.70;;;;;;4976481;28;20063;-68
2022/08/21 11:06:33;;;;;;;8.88;2.55;;;24.00;55.80;;;;;;5006607;28;20072;-68
2022/08/21 11:09:15;;;;;;;8.30;2.55;;;24.10;56.50;;;;;;4989880;28;20048;-67
2022/08/21 11:11:50;;;;;;;8.18;2.75;;;24.20;53.50;;;;;;5005111;28;20041;-67
2022/08/21 11:15:00;;;;;;;7.53;2.60;;;24.00;52.60;;;;;;5032577;28;20045;-67
2022/08/21 11:17:36;;;;;;;8.40;2.30;;;23.90;53.10;;;;;;4990970;28;20105;-66
2022/08/21 11:20:41;;;;;;;8.65;2.60;;;24.00;53.30;;;;;;4994672;28;20077;-65
2022/08/21 11:23:38;;;;;;;9.38;2.55;;;23.90;53.90;;;;;;4994040;28;20134;-66
2022/08/21 11:26:13;;;;;;;10.02;2.42;;;24.10;52.90;;;;;;4986506;28;20066;-66
2022/08/21 11:29:05;;;;;;;9.00;2.60;;;24.20;52.60;;;;;;4996121;28;20118;-67
2022/08/21 11:32:11;;;;;;;6.50;2.33;;;23.80;50.60;;;;;;5006805;28;20049;-65
2022/08/21 11:35:33;;;;;;;9.07;2.53;;;23.70;52.50;;;;;;4986894;28;20063;-66
2022/08/21 11:38:34;;;;;;;6.13;2.08;;;23.80;53.80;;;;;;4930822;29;20078;-66
2022/08/21 11:41:21;;;;;;;8.20;2.28;;;24.10;53.40;;;;;;4948146;29;20492;-68
2022/08/21 11:43:47;;;;;;;9.57;2.47;;;24.30;51.70;;;;;;4947060;28;20050;-66
2022/08/21 11:46:44;;;;;;;7.38;2.60;;;24.30;52.50;;;;;;4965665;28;20046;-66
2022/08/21 11:49:23;;;;;;;8.65;2.50;;;24.40;51.70;;;;;;4987284;28;20046;-67
2022/08/21 11:52:37;;;;;;;7.72;2.30;;;24.50;52.00;;;;;;5023580;28;20048;-66
2022/08/21 11:55:41;;;;;;;8.20;4.03;;;24.80;51.60;;;;;;5009589;28;20065;-68
2022/08/21 11:58:36;;;;;;;6.18;2.70;;;24.90;50.70;;;;;;5022020;28;20124;-66
2022/08/21 12:01:26;;;;;;;8.32;2.60;;;25.00;50.80;;;;;;5008472;28;20050;-67
2022/08/21 12:04:26;;;;;;;7.70;2.28;;;24.80;50.40;;;;;;5015715;28;20054;-68
2022/08/21 12:06:54;;;;;;;6.97;2.13;;;24.50;50.40;;;;;;5013719;28;20044;-67
2022/08/21 12:09:36;;;;;;;7.82;2.33;;;24.70;50.80;;;;;;5037382;28;20092;-67
2022/08/21 12:12:36;;;;;;;7.38;2.22;;;25.00;51.00;;;;;;5007758;28;20064;-66
2022/08/21 12:15:15;;;;;;;7.80;2.42;;;25.10;49.40;;;;;;5007882;28;20056;-66
2022/08/21 12:18:06;;;;;;;6.75;2.33;;;25.30;49.80;;;;;;5013004;28;20087;-67
2022/08/21 12:20:46;;;;;;;6.60;1.90;;;25.50;49.70;;;;;;5021716;28;20172;-65
2022/08/21 12:23:19;;;;;;;3.75;1.60;;;25.50;48.70;;;;;;5037259;28;20803;-66
2022/08/21 12:26:00;;;;;;;5.18;1.67;;;25.40;47.60;;;;;;5007982;28;20488;-67
2022/08/21 12:28:28;;;;;;;5.78;1.90;;;25.30;48.10;;;;;;5031213;28;20084;-67
2022/08/21 12:30:55;;;;;;;4.75;1.85;;;25.60;49.60;;;;;;5041181;28;20427;-67
2022/08/21 12:33:33;;;;;;;4.68;1.88;;;25.80;48.20;;;;;;4997226;28;20252;-67
2022/08/21 12:36:21;;;;;;;4.43;2.20;;;25.90;47.10;;;;;;4991568;28;20069;-68
2022/08/21 12:39:09;;;;;;;6.30;1.90;;;25.80;46.80;;;;;;4994583;28;20037;-68
2022/08/21 12:42:02;;;;;;;5.80;2.00;;;26.10;45.70;;;;;;5016161;28;20486;-69
2022/08/21 12:44:34;;;;;;;5.88;1.73;;;26.20;44.50;;;;;;5013523;28;20148;-67
2022/08/21 12:47:17;;;;;;;4.90;1.70;;;26.40;45.70;;;;;;5012754;28;20073;-68
2022/08/21 12:49:48;;;;;;;6.03;1.52;;;26.30;43.90;;;;;;5022028;28;20045;-68
2022/08/21 12:52:30;;;;;;;7.68;1.85;;;26.50;44.10;;;;;;5014814;28;20368;-67
2022/08/21 12:54:57;;;;;;;9.07;1.92;;;26.50;43.10;;;;;;4995291;28;20057;-71
2022/08/21 12:57:28;;;;;;;5.93;1.70;;;26.60;45.00;;;;;;4993501;28;20077;-72
2022/08/21 13:00:05;;;;;;;5.55;1.60;;;26.90;43.20;;;;;;5022603;28;20140;-70
2022/08/21 13:02:39;;;;;;;5.50;1.70;;;27.20;43.90;;;;;;5027126;28;20486;-71
2022/08/21 13:05:29;;;;;;;7.47;1.73;;;27.30;44.70;;;;;;4994466;28;20423;-70
2022/08/21 13:07:57;;;;;;;5.18;2.13;;;27.60;45.00;;;;;;5010910;28;20046;-71
2022/08/21 13:10:27;;;;;;;6.05;1.40;;;27.50;41.40;;;;;;5015704;28;20037;-70
2022/08/21 13:13:02;;;;;;;4.78;1.63;;;27.40;41.70;;;;;;4999546;28;20052;-71
2022/08/21 13:15:35;;;;;;;2.72;1.30;;;27.30;41.70;;;;;;5008646;28;20136;-71
2022/08/21 13:18:03;;;;;;;4.38;1.60;;;27.40;41.30;;;;;;4996285;28;20163;-71
2022/08/21 13:20:38;;;;;;;3.85;1.50;;;27.70;40.70;;;;;;4999243;28;20049;-71